sensor_id;sensor_type;location;lat;lon;timestamp;temperature;humidity
28773;DHT22;15925;51.222;5.678;2022-11-13T00:01:18;8.40;99.90
28773;DHT22;15925;51.222;5.678;2022-11-13T00:04:02;8.40;99.90
28773;DHT22;15925;51.222;5.678;2022-11-13T00:06:47;8.40;99.90
28773;DHT22;15925;51.222;5.678;2022-11-13T00:09:31;8.40;99.90
28773;DHT22;15925;51.222;5.678;2022-11-13T00:12:15;8.30;99.90
28773;DHT22;15925;51.222;5.678;2022-11-13T00:14:59;8.40;99.90
28773;DHT22;15925;51.222;5.678;2022-11-13T00:17:44;8.30;99.90
28773;DHT22;15925;51.222;5.678;2022-11-13T00:20:28;8.30;99.90
28773;DHT22;15925;51.222;5.678;2022-11-13T00:23:13;8.20;99.90
28773;DHT22;15925;51.222;5.678;2022-11-13T00:26:03;8.20;99.90
28773;DHT22;15925;51.222;5.678;2022-11-13T00:28:52;8.20;99.90
28773;DHT22;15925;51.222;5.678;2022-11-13T00:31:36;8.20;99.90
28773;DHT22;15925;51.222;5.678;2022-11-13T00:34:20;8.10;99.90
28773;DHT22;15925;51.222;5.678;2022-11-13T00:37:05;8.10;99.90
28773;DHT22;15925;51.222;5.678;2022-11-13T00:39:49;8.10;99.90
28773;DHT22;15925;51.222;5.678;2022-11-13T00:42:33;7.80;99.90
28773;DHT22;15925;51.222;5.678;2022-11-13T00:45:17;7.90;99.90
28773;DHT22;15925;51.222;5.678;2022-11-13T00:48:01;8.00;99.90
28773;DHT22;15925;51.222;5.678;2022-11-13T00:50:45;8.00;99.90
28773;DHT22;15925;51.222;5.678;2022-11-13T00:53:30;8.00;99.90
28773;DHT22;15925;51.222;5.678;2022-11-13T00:56:14;8.10;99.90
28773;DHT22;15925;51.222;5.678;2022-11-13T00:58:58;8.00;99.90
28773;DHT22;15925;51.222;5.678;2022-11-13T01:01:42;8.00;99.90
28773;DHT22;15925;51.222;5.678;2022-11-13T01:04:27;8.00;99.90
28773;DHT22;15925;51.222;5.678;2022-11-13T01:07:12;7.90;99.90
28773;DHT22;15925;51.222;5.678;2022-11-13T01:09:56;8.00;99.90
28773;DHT22;15925;51.222;5.678;2022-11-13T01:12:41;8.00;99.90
28773;DHT22;15925;51.222;5.678;2022-11-13T01:15:26;7.90;99.90
28773;DHT22;15925;51.222;5.678;2022-11-13T01:18:11;7.80;99.90
28773;DHT22;15925;51.222;5.678;2022-11-13T01:21:02;7.80;99.90
28773;DHT22;15925;51.222;5.678;2022-11-13T01:23:47;7.90;99.90
28773;DHT22;15925;51.222;5.678;2022-11-13T01:26:31;7.80;99.90
28773;DHT22;15925;51.222;5.678;2022-11-13T01:29:16;7.80;99.90
28773;DHT22;15925;51.222;5.678;2022-11-13T01:32:00;7.70;99.90
28773;DHT22;15925;51.222;5.678;2022-11-13T01:34:44;7.60;99.90
28773;DHT22;15925;51.222;5.678;2022-11-13T01:37:29;7.50;99.90
28773;DHT22;15925;51.222;5.678;2022-11-13T01:40:13;7.50;99.90
28773;DHT22;15925;51.222;5.678;2022-11-13T01:42:57;7.60;99.90
28773;DHT22;15925;51.222;5.678;2022-11-13T01:49:19;7.70;99.90
28773;DHT22;15925;51.222;5.678;2022-11-13T01:52:12;7.70;99.90
28773;DHT22;15925;51.222;5.678;2022-11-13T01:55:08;7.70;99.90
28773;DHT22;15925;51.222;5.678;2022-11-13T01:57:53;7.70;99.90
28773;DHT22;15925;51.222;5.678;2022-11-13T02:00:38;7.70;99.90
28773;DHT22;15925;51.222;5.678;2022-11-13T02:03:22;7.80;99.90
28773;DHT22;15925;51.222;5.678;2022-11-13T02:06:07;7.80;99.90
28773;DHT22;15925;51.222;5.678;2022-11-13T02:08:52;7.70;99.90
28773;DHT22;15925;51.222;5.678;2022-11-13T02:11:37;7.80;99.90
28773;DHT22;15925;51.222;5.678;2022-11-13T02:14:24;7.80;99.90
28773;DHT22;15925;51.222;5.678;2022-11-13T02:17:13;7.80;99.90
28773;DHT22;15925;51.222;5.678;2022-11-13T02:20:03;7.80;99.90
28773;DHT22;15925;51.222;5.678;2022-11-13T02:25:40;7.80;99.90
28773;DHT22;15925;51.222;5.678;2022-11-13T02:28:26;7.80;99.90
28773;DHT22;15925;51.222;5.678;2022-11-13T02:31:11;7.80;99.90
28773;DHT22;15925;51.222;5.678;2022-11-13T02:33:56;7.80;99.90
28773;DHT22;15925;51.222;5.678;2022-11-13T02:36:41;7.70;99.90
28773;DHT22;15925;51.222;5.678;2022-11-13T02:39:25;7.70;99.90
28773;DHT22;15925;51.222;5.678;2022-11-13T02:42:09;7.60;99.90
28773;DHT22;15925;51.222;5.678;2022-11-13T02:44:53;7.60;99.90
28773;DHT22;15925;51.222;5.678;2022-11-13T02:47:38;7.60;99.90
28773;DHT22;15925;51.222;5.678;2022-11-13T02:50:22;7.60;99.90
28773;DHT22;15925;51.222;5.678;2022-11-13T02:53:07;7.60;99.90
28773;DHT22;15925;51.222;5.678;2022-11-13T02:55:52;7.50;99.90
28773;DHT22;15925;51.222;5.678;2022-11-13T02:58:36;7.60;99.90
28773;DHT22;15925;51.222;5.678;2022-11-13T03:01:20;7.50;99.90
28773;DHT22;15925;51.222;5.678;2022-11-13T03:04:05;7.50;99.90
28773;DHT22;15925;51.222;5.678;2022-11-13T03:06:49;7.50;99.90
28773;DHT22;15925;51.222;5.678;2022-11-13T03:09:34;7.50;99.90
28773;DHT22;15925;51.222;5.678;2022-11-13T03:12:18;7.50;99.90
28773;DHT22;15925;51.222;5.678;2022-11-13T03:15:03;7.40;99.90
28773;DHT22;15925;51.222;5.678;2022-11-13T03:17:47;7.40;99.90
28773;DHT22;15925;51.222;5.678;2022-11-13T03:20:32;7.30;99.90
28773;DHT22;15925;51.222;5.678;2022-11-13T03:23:16;7.30;99.90
28773;DHT22;15925;51.222;5.678;2022-11-13T03:26:06;7.40;99.90
28773;DHT22;15925;51.222;5.678;2022-11-13T03:28:51;7.30;99.90
28773;DHT22;15925;51.222;5.678;2022-11-13T03:31:36;7.20;99.90
28773;DHT22;15925;51.222;5.678;2022-11-13T03:34:20;7.20;99.90
28773;DHT22;15925;51.222;5.678;2022-11-13T03:37:05;7.20;99.90
28773;DHT22;15925;51.222;5.678;2022-11-13T03:39:49;7.20;99.90
28773;DHT22;15925;51.222;5.678;2022-11-13T03:42:33;7.20;99.90
28773;DHT22;15925;51.222;5.678;2022-11-13T03:45:18;7.30;99.90
28773;DHT22;15925;51.222;5.678;2022-11-13T03:48:02;7.30;99.90
28773;DHT22;15925;51.222;5.678;2022-11-13T03:50:50;7.40;99.90
28773;DHT22;15925;51.222;5.678;2022-11-13T03:53:35;7.40;99.90
28773;DHT22;15925;51.222;5.678;2022-11-13T03:56:20;7.50;99.90
28773;DHT22;15925;51.222;5.678;2022-11-13T03:59:05;7.50;99.90
28773;DHT22;15925;51.222;5.678;2022-11-13T04:01:49;7.50;99.90
28773;DHT22;15925;51.222;5.678;2022-11-13T04:04:33;7.50;99.90
28773;DHT22;15925;51.222;5.678;2022-11-13T04:07:17;7.40;99.90
28773;DHT22;15925;51.222;5.678;2022-11-13T04:10:01;7.50;99.90
28773;DHT22;15925;51.222;5.678;2022-11-13T04:12:45;7.40;99.90
28773;DHT22;15925;51.222;5.678;2022-11-13T04:15:29;7.40;99.90
28773;DHT22;15925;51.222;5.678;2022-11-13T04:18:13;7.40;99.90
28773;DHT22;15925;51.222;5.678;2022-11-13T04:21:02;7.40;99.90
28773;DHT22;15925;51.222;5.678;2022-11-13T04:23:47;7.30;99.90
28773;DHT22;15925;51.222;5.678;2022-11-13T04:26:31;7.30;99.90
28773;DHT22;15925;51.222;5.678;2022-11-13T04:29:15;7.30;99.90
28773;DHT22;15925;51.222;5.678;2022-11-13T04:31:59;7.30;99.90
28773;DHT22;15925;51.222;5.678;2022-11-13T04:34:43;7.30;99.90
28773;DHT22;15925;51.222;5.678;2022-11-13T04:37:27;7.30;99.90
28773;DHT22;15925;51.222;5.678;2022-11-13T04:40:12;7.20;99.90
28773;DHT22;15925;51.222;5.678;2022-11-13T04:42:56;7.20;99.90
28773;DHT22;15925;51.222;5.678;2022-11-13T04:45:40;7.30;99.90
28773;DHT22;15925;51.222;5.678;2022-11-13T04:48:25;7.20;99.90
28773;DHT22;15925;51.222;5.678;2022-11-13T04:51:09;7.30;99.90
28773;DHT22;15925;51.222;5.678;2022-11-13T04:53:54;7.20;99.90
28773;DHT22;15925;51.222;5.678;2022-11-13T04:56:38;7.20;99.90
28773;DHT22;15925;51.222;5.678;2022-11-13T04:59:22;7.20;99.90
28773;DHT22;15925;51.222;5.678;2022-11-13T05:02:07;7.20;99.90
28773;DHT22;15925;51.222;5.678;2022-11-13T05:04:51;7.10;99.90
28773;DHT22;15925;51.222;5.678;2022-11-13T05:07:36;7.10;99.90
28773;DHT22;15925;51.222;5.678;2022-11-13T05:10:20;7.10;99.90
28773;DHT22;15925;51.222;5.678;2022-11-13T05:13:05;7.10;99.90
28773;DHT22;15925;51.222;5.678;2022-11-13T05:15:49;7.10;99.90
28773;DHT22;15925;51.222;5.678;2022-11-13T05:18:36;7.10;99.90
28773;DHT22;15925;51.222;5.678;2022-11-13T05:21:20;7.10;99.90
28773;DHT22;15925;51.222;5.678;2022-11-13T05:24:04;7.10;99.90
28773;DHT22;15925;51.222;5.678;2022-11-13T05:26:49;7.10;99.90
28773;DHT22;15925;51.222;5.678;2022-11-13T05:29:33;7.10;99.90
28773;DHT22;15925;51.222;5.678;2022-11-13T05:32:18;7.10;99.90
28773;DHT22;15925;51.222;5.678;2022-11-13T05:35:02;7.10;99.90
28773;DHT22;15925;51.222;5.678;2022-11-13T05:37:46;7.10;99.90
28773;DHT22;15925;51.222;5.678;2022-11-13T05:40:30;7.10;99.90
28773;DHT22;15925;51.222;5.678;2022-11-13T05:43:14;7.10;99.90
28773;DHT22;15925;51.222;5.678;2022-11-13T05:46:07;7.00;99.90
28773;DHT22;15925;51.222;5.678;2022-11-13T05:48:53;7.00;99.90
28773;DHT22;15925;51.222;5.678;2022-11-13T05:51:38;7.00;99.90
28773;DHT22;15925;51.222;5.678;2022-11-13T05:54:22;6.90;99.90
28773;DHT22;15925;51.222;5.678;2022-11-13T05:57:06;6.90;99.90
28773;DHT22;15925;51.222;5.678;2022-11-13T05:59:50;7.00;99.90
28773;DHT22;15925;51.222;5.678;2022-11-13T06:02:34;6.90;99.90
28773;DHT22;15925;51.222;5.678;2022-11-13T06:05:18;6.90;99.90
28773;DHT22;15925;51.222;5.678;2022-11-13T06:08:03;6.90;99.90
28773;DHT22;15925;51.222;5.678;2022-11-13T06:10:47;6.90;99.90
28773;DHT22;15925;51.222;5.678;2022-11-13T06:13:32;6.80;99.90
28773;DHT22;15925;51.222;5.678;2022-11-13T06:16:22;6.80;99.90
28773;DHT22;15925;51.222;5.678;2022-11-13T06:19:08;6.70;99.90
28773;DHT22;15925;51.222;5.678;2022-11-13T06:21:53;6.70;99.90
28773;DHT22;15925;51.222;5.678;2022-11-13T06:24:37;6.60;99.90
28773;DHT22;15925;51.222;5.678;2022-11-13T06:27:21;6.60;99.90
28773;DHT22;15925;51.222;5.678;2022-11-13T06:30:06;6.60;99.90
28773;DHT22;15925;51.222;5.678;2022-11-13T06:32:52;6.50;99.90
28773;DHT22;15925;51.222;5.678;2022-11-13T06:35:36;6.50;99.90
28773;DHT22;15925;51.222;5.678;2022-11-13T06:38:20;6.50;99.90
28773;DHT22;15925;51.222;5.678;2022-11-13T06:41:06;6.50;99.90
28773;DHT22;15925;51.222;5.678;2022-11-13T06:43:50;6.40;99.90
28773;DHT22;15925;51.222;5.678;2022-11-13T06:46:35;6.30;99.90
28773;DHT22;15925;51.222;5.678;2022-11-13T06:49:19;6.30;99.90
28773;DHT22;15925;51.222;5.678;2022-11-13T06:52:03;6.30;99.90
28773;DHT22;15925;51.222;5.678;2022-11-13T06:54:48;6.30;99.90
28773;DHT22;15925;51.222;5.678;2022-11-13T06:57:32;6.20;99.90
28773;DHT22;15925;51.222;5.678;2022-11-13T07:00:16;6.20;99.90
28773;DHT22;15925;51.222;5.678;2022-11-13T07:03:01;6.20;99.90
28773;DHT22;15925;51.222;5.678;2022-11-13T07:05:45;6.20;99.90
28773;DHT22;15925;51.222;5.678;2022-11-13T07:08:31;6.30;99.90
28773;DHT22;15925;51.222;5.678;2022-11-13T07:11:18;6.20;99.90
28773;DHT22;15925;51.222;5.678;2022-11-13T07:14:03;6.10;99.90
28773;DHT22;15925;51.222;5.678;2022-11-13T07:16:47;6.20;99.90
28773;DHT22;15925;51.222;5.678;2022-11-13T07:19:32;6.20;99.90
28773;DHT22;15925;51.222;5.678;2022-11-13T07:22:16;6.20;99.90
28773;DHT22;15925;51.222;5.678;2022-11-13T07:25:01;6.20;99.90
28773;DHT22;15925;51.222;5.678;2022-11-13T07:27:45;6.10;99.90
28773;DHT22;15925;51.222;5.678;2022-11-13T07:30:30;6.10;99.90
28773;DHT22;15925;51.222;5.678;2022-11-13T07:33:15;6.10;99.90
28773;DHT22;15925;51.222;5.678;2022-11-13T07:35:59;6.10;99.90
28773;DHT22;15925;51.222;5.678;2022-11-13T07:38:44;6.10;99.90
28773;DHT22;15925;51.222;5.678;2022-11-13T07:41:28;6.00;99.90
28773;DHT22;15925;51.222;5.678;2022-11-13T07:44:13;6.00;99.90
28773;DHT22;15925;51.222;5.678;2022-11-13T07:46:57;6.00;99.90
28773;DHT22;15925;51.222;5.678;2022-11-13T07:49:41;5.90;99.90
28773;DHT22;15925;51.222;5.678;2022-11-13T07:52:26;5.90;99.90
28773;DHT22;15925;51.222;5.678;2022-11-13T07:55:11;5.90;99.90
28773;DHT22;15925;51.222;5.678;2022-11-13T07:57:56;5.90;99.90
28773;DHT22;15925;51.222;5.678;2022-11-13T08:00:41;5.90;99.90
28773;DHT22;15925;51.222;5.678;2022-11-13T08:03:26;5.80;99.90
28773;DHT22;15925;51.222;5.678;2022-11-13T08:06:10;5.80;99.90
28773;DHT22;15925;51.222;5.678;2022-11-13T08:08:54;5.90;99.90
28773;DHT22;15925;51.222;5.678;2022-11-13T08:11:39;5.90;99.90
28773;DHT22;15925;51.222;5.678;2022-11-13T08:14:23;6.00;99.90
28773;DHT22;15925;51.222;5.678;2022-11-13T08:17:07;6.00;99.90
28773;DHT22;15925;51.222;5.678;2022-11-13T08:19:51;6.10;99.90
28773;DHT22;15925;51.222;5.678;2022-11-13T08:22:36;6.10;99.90
28773;DHT22;15925;51.222;5.678;2022-11-13T08:25:20;6.10;99.90
28773;DHT22;15925;51.222;5.678;2022-11-13T08:28:05;6.20;99.90
28773;DHT22;15925;51.222;5.678;2022-11-13T08:30:50;6.20;99.90
28773;DHT22;15925;51.222;5.678;2022-11-13T08:33:35;6.20;99.90
28773;DHT22;15925;51.222;5.678;2022-11-13T08:36:20;6.30;99.90
28773;DHT22;15925;51.222;5.678;2022-11-13T08:39:04;6.30;99.90
28773;DHT22;15925;51.222;5.678;2022-11-13T08:41:48;6.40;99.90
28773;DHT22;15925;51.222;5.678;2022-11-13T08:44:33;6.50;99.90
28773;DHT22;15925;51.222;5.678;2022-11-13T08:47:17;6.50;99.90
28773;DHT22;15925;51.222;5.678;2022-11-13T08:50:01;6.60;99.90
28773;DHT22;15925;51.222;5.678;2022-11-13T08:52:46;6.70;99.90
28773;DHT22;15925;51.222;5.678;2022-11-13T08:55:32;6.80;99.90
28773;DHT22;15925;51.222;5.678;2022-11-13T08:58:16;6.90;99.90
28773;DHT22;15925;51.222;5.678;2022-11-13T09:01:02;7.00;99.90
28773;DHT22;15925;51.222;5.678;2022-11-13T09:03:48;7.10;99.90
28773;DHT22;15925;51.222;5.678;2022-11-13T09:06:33;7.30;99.90
28773;DHT22;15925;51.222;5.678;2022-11-13T09:09:17;7.40;99.90
28773;DHT22;15925;51.222;5.678;2022-11-13T09:12:02;7.50;99.90
28773;DHT22;15925;51.222;5.678;2022-11-13T09:14:47;7.70;99.90
28773;DHT22;15925;51.222;5.678;2022-11-13T09:17:32;7.80;99.90
28773;DHT22;15925;51.222;5.678;2022-11-13T09:20:16;8.00;99.90
28773;DHT22;15925;51.222;5.678;2022-11-13T09:23:05;8.10;99.90
28773;DHT22;15925;51.222;5.678;2022-11-13T09:25:50;8.20;99.90
28773;DHT22;15925;51.222;5.678;2022-11-13T09:28:34;8.30;99.90
28773;DHT22;15925;51.222;5.678;2022-11-13T09:31:19;8.40;99.90
28773;DHT22;15925;51.222;5.678;2022-11-13T09:34:03;8.60;99.90
28773;DHT22;15925;51.222;5.678;2022-11-13T09:36:47;8.80;99.90
28773;DHT22;15925;51.222;5.678;2022-11-13T09:39:31;8.80;99.90
28773;DHT22;15925;51.222;5.678;2022-11-13T09:42:22;8.90;99.90
28773;DHT22;15925;51.222;5.678;2022-11-13T09:45:11;9.00;99.90
28773;DHT22;15925;51.222;5.678;2022-11-13T09:48:17;9.20;99.90
28773;DHT22;15925;51.222;5.678;2022-11-13T09:51:21;9.30;99.90
28773;DHT22;15925;51.222;5.678;2022-11-13T09:54:13;9.40;99.90
28773;DHT22;15925;51.222;5.678;2022-11-13T10:14:35;10.20;99.90
28773;DHT22;15925;51.222;5.678;2022-11-13T10:20:39;10.50;99.90
28773;DHT22;15925;51.222;5.678;2022-11-13T10:23:28;10.60;99.90
28773;DHT22;15925;51.222;5.678;2022-11-13T10:26:19;10.70;99.90
28773;DHT22;15925;51.222;5.678;2022-11-13T10:29:15;10.80;99.90
28773;DHT22;15925;51.222;5.678;2022-11-13T10:35:04;11.10;99.90
28773;DHT22;15925;51.222;5.678;2022-11-13T10:38:02;11.30;99.90
28773;DHT22;15925;51.222;5.678;2022-11-13T10:40:47;11.40;99.90
28773;DHT22;15925;51.222;5.678;2022-11-13T10:43:32;11.50;99.90
28773;DHT22;15925;51.222;5.678;2022-11-13T10:46:25;11.60;99.90
28773;DHT22;15925;51.222;5.678;2022-11-13T10:49:27;11.70;99.90
28773;DHT22;15925;51.222;5.678;2022-11-13T10:52:22;11.80;99.90
28773;DHT22;15925;51.222;5.678;2022-11-13T10:58:09;12.00;99.90
28773;DHT22;15925;51.222;5.678;2022-11-13T11:00:54;12.20;99.90
28773;DHT22;15925;51.222;5.678;2022-11-13T11:03:48;12.30;99.90
28773;DHT22;15925;51.222;5.678;2022-11-13T11:06:34;12.40;99.90
28773;DHT22;15925;51.222;5.678;2022-11-13T11:09:22;12.50;99.90
28773;DHT22;15925;51.222;5.678;2022-11-13T11:12:18;12.60;99.90
28773;DHT22;15925;51.222;5.678;2022-11-13T11:15:25;12.70;99.90
28773;DHT22;15925;51.222;5.678;2022-11-13T11:18:34;12.80;99.90
28773;DHT22;15925;51.222;5.678;2022-11-13T11:21:26;12.90;99.90
28773;DHT22;15925;51.222;5.678;2022-11-13T11:24:23;13.00;99.90
28773;DHT22;15925;51.222;5.678;2022-11-13T11:27:15;13.00;99.90
28773;DHT22;15925;51.222;5.678;2022-11-13T11:30:17;13.20;99.90
28773;DHT22;15925;51.222;5.678;2022-11-13T11:33:16;13.20;99.90
28773;DHT22;15925;51.222;5.678;2022-11-13T11:36:22;13.30;99.90
28773;DHT22;15925;51.222;5.678;2022-11-13T11:39:24;13.40;99.90
28773;DHT22;15925;51.222;5.678;2022-11-13T11:42:28;13.50;99.90
28773;DHT22;15925;51.222;5.678;2022-11-13T11:48:05;13.70;99.90
28773;DHT22;15925;51.222;5.678;2022-11-13T12:00:25;14.00;99.90
28773;DHT22;15925;51.222;5.678;2022-11-13T12:09:28;14.30;99.90
28773;DHT22;15925;51.222;5.678;2022-11-13T12:15:32;14.40;99.90
28773;DHT22;15925;51.222;5.678;2022-11-13T12:24:49;14.60;99.90
28773;DHT22;15925;51.222;5.678;2022-11-13T12:33:29;14.90;99.90
28773;DHT22;15925;51.222;5.678;2022-11-13T12:36:16;14.90;99.90
28773;DHT22;15925;51.222;5.678;2022-11-13T12:39:16;15.00;99.90
28773;DHT22;15925;51.222;5.678;2022-11-13T12:42:18;15.00;99.90
28773;DHT22;15925;51.222;5.678;2022-11-13T12:48:52;15.10;99.90
28773;DHT22;15925;51.222;5.678;2022-11-13T12:51:14;15.10;99.90
28773;DHT22;15925;51.222;5.678;2022-11-13T12:53:58;15.20;99.90
28773;DHT22;15925;51.222;5.678;2022-11-13T12:56:43;15.30;99.90
28773;DHT22;15925;51.222;5.678;2022-11-13T12:59:41;15.30;99.90
28773;DHT22;15925;51.222;5.678;2022-11-13T13:15:40;15.40;99.90
28773;DHT22;15925;51.222;5.678;2022-11-13T13:18:29;15.40;99.90
28773;DHT22;15925;51.222;5.678;2022-11-13T13:21:16;15.40;99.90
28773;DHT22;15925;51.222;5.678;2022-11-13T13:24:21;15.50;99.90
28773;DHT22;15925;51.222;5.678;2022-11-13T13:27:24;15.50;99.90
28773;DHT22;15925;51.222;5.678;2022-11-13T13:30:22;15.50;99.90
28773;DHT22;15925;51.222;5.678;2022-11-13T13:33:30;15.50;99.90
28773;DHT22;15925;51.222;5.678;2022-11-13T13:45:42;15.50;99.90
28773;DHT22;15925;51.222;5.678;2022-11-13T13:48:30;15.50;99.90
28773;DHT22;15925;51.222;5.678;2022-11-13T13:51:33;15.50;99.90
28773;DHT22;15925;51.222;5.678;2022-11-13T13:54:22;15.50;99.90
28773;DHT22;15925;51.222;5.678;2022-11-13T13:57:13;15.50;99.90
28773;DHT22;15925;51.222;5.678;2022-11-13T13:59:58;15.60;99.90
28773;DHT22;15925;51.222;5.678;2022-11-13T14:02:47;15.50;99.90
28773;DHT22;15925;51.222;5.678;2022-11-13T14:05:34;15.50;99.90
28773;DHT22;15925;51.222;5.678;2022-11-13T14:08:21;15.50;99.90
28773;DHT22;15925;51.222;5.678;2022-11-13T14:11:24;15.50;99.90
28773;DHT22;15925;51.222;5.678;2022-11-13T14:14:30;15.50;99.90
28773;DHT22;15925;51.222;5.678;2022-11-13T14:17:22;15.50;99.90
28773;DHT22;15925;51.222;5.678;2022-11-13T14:20:11;15.50;99.90
28773;DHT22;15925;51.222;5.678;2022-11-13T14:22:55;15.50;99.90
28773;DHT22;15925;51.222;5.678;2022-11-13T14:25:40;15.50;99.90
28773;DHT22;15925;51.222;5.678;2022-11-13T14:28:30;15.50;99.90
28773;DHT22;15925;51.222;5.678;2022-11-13T14:31:15;15.60;99.90
28773;DHT22;15925;51.222;5.678;2022-11-13T14:34:20;15.50;99.90
28773;DHT22;15925;51.222;5.678;2022-11-13T14:37:28;15.50;99.90
28773;DHT22;15925;51.222;5.678;2022-11-13T14:40:27;15.50;99.90
28773;DHT22;15925;51.222;5.678;2022-11-13T14:43:21;15.50;99.90
28773;DHT22;15925;51.222;5.678;2022-11-13T14:46:35;15.50;99.90
28773;DHT22;15925;51.222;5.678;2022-11-13T14:49:33;15.40;99.90
28773;DHT22;15925;51.222;5.678;2022-11-13T14:52:26;15.40;99.90
28773;DHT22;15925;51.222;5.678;2022-11-13T14:55:22;15.40;99.90
28773;DHT22;15925;51.222;5.678;2022-11-13T14:58:11;15.40;99.90
28773;DHT22;15925;51.222;5.678;2022-11-13T15:01:19;15.30;99.90
28773;DHT22;15925;51.222;5.678;2022-11-13T15:04:02;15.30;99.90
28773;DHT22;15925;51.222;5.678;2022-11-13T15:06:46;15.20;99.90
28773;DHT22;15925;51.222;5.678;2022-11-13T15:09:40;15.20;99.90
28773;DHT22;15925;51.222;5.678;2022-11-13T15:12:24;15.10;99.90
28773;DHT22;15925;51.222;5.678;2022-11-13T15:15:18;15.10;99.90
28773;DHT22;15925;51.222;5.678;2022-11-13T15:18:02;14.90;99.90
28773;DHT22;15925;51.222;5.678;2022-11-13T15:20:47;14.90;99.90
28773;DHT22;15925;51.222;5.678;2022-11-13T15:23:32;14.80;99.90
28773;DHT22;15925;51.222;5.678;2022-11-13T15:26:16;14.70;99.90
28773;DHT22;15925;51.222;5.678;2022-11-13T15:29:00;14.70;99.90
28773;DHT22;15925;51.222;5.678;2022-11-13T15:31:46;14.60;99.90
28773;DHT22;15925;51.222;5.678;2022-11-13T15:34:30;14.50;99.90
28773;DHT22;15925;51.222;5.678;2022-11-13T15:37:15;14.40;99.90
28773;DHT22;15925;51.222;5.678;2022-11-13T15:40:00;14.30;99.90
28773;DHT22;15925;51.222;5.678;2022-11-13T15:42:44;14.20;99.90
28773;DHT22;15925;51.222;5.678;2022-11-13T15:45:29;14.10;99.90
28773;DHT22;15925;51.222;5.678;2022-11-13T15:48:13;14.00;99.90
28773;DHT22;15925;51.222;5.678;2022-11-13T15:50:57;13.90;99.90
28773;DHT22;15925;51.222;5.678;2022-11-13T15:53:43;13.60;99.90
28773;DHT22;15925;51.222;5.678;2022-11-13T15:56:28;13.60;99.90
28773;DHT22;15925;51.222;5.678;2022-11-13T15:59:13;13.50;99.90
28773;DHT22;15925;51.222;5.678;2022-11-13T16:01:57;13.40;99.90
28773;DHT22;15925;51.222;5.678;2022-11-13T16:04:42;13.40;99.90
28773;DHT22;15925;51.222;5.678;2022-11-13T16:07:27;13.30;99.90
28773;DHT22;15925;51.222;5.678;2022-11-13T16:10:15;13.20;99.90
28773;DHT22;15925;51.222;5.678;2022-11-13T16:13:00;13.10;99.90
28773;DHT22;15925;51.222;5.678;2022-11-13T16:15:44;13.00;99.90
28773;DHT22;15925;51.222;5.678;2022-11-13T16:18:31;12.90;99.90
28773;DHT22;15925;51.222;5.678;2022-11-13T16:21:18;12.80;99.90
28773;DHT22;15925;51.222;5.678;2022-11-13T16:24:03;12.80;99.90
28773;DHT22;15925;51.222;5.678;2022-11-13T16:26:50;12.70;99.90
28773;DHT22;15925;51.222;5.678;2022-11-13T16:29:34;12.50;99.90
28773;DHT22;15925;51.222;5.678;2022-11-13T16:32:18;12.40;99.90
28773;DHT22;15925;51.222;5.678;2022-11-13T16:35:03;12.30;99.90
28773;DHT22;15925;51.222;5.678;2022-11-13T16:37:48;12.10;99.90
28773;DHT22;15925;51.222;5.678;2022-11-13T16:40:32;11.90;99.90
28773;DHT22;15925;51.222;5.678;2022-11-13T16:43:17;11.90;99.90
28773;DHT22;15925;51.222;5.678;2022-11-13T16:46:01;11.90;99.90
28773;DHT22;15925;51.222;5.678;2022-11-13T16:48:56;11.90;99.90
28773;DHT22;15925;51.222;5.678;2022-11-13T16:51:41;11.80;99.90
28773;DHT22;15925;51.222;5.678;2022-11-13T16:54:25;11.80;99.90
28773;DHT22;15925;51.222;5.678;2022-11-13T16:57:11;11.70;99.90
28773;DHT22;15925;51.222;5.678;2022-11-13T16:59:58;11.60;99.90
28773;DHT22;15925;51.222;5.678;2022-11-13T17:02:42;11.60;99.90
28773;DHT22;15925;51.222;5.678;2022-11-13T17:05:27;11.50;99.90
28773;DHT22;15925;51.222;5.678;2022-11-13T17:08:11;11.50;99.90
28773;DHT22;15925;51.222;5.678;2022-11-13T17:10:56;11.40;99.90
28773;DHT22;15925;51.222;5.678;2022-11-13T17:13:41;11.40;99.90
28773;DHT22;15925;51.222;5.678;2022-11-13T17:16:27;11.20;99.90
28773;DHT22;15925;51.222;5.678;2022-11-13T17:19:12;11.00;99.90
28773;DHT22;15925;51.222;5.678;2022-11-13T17:21:57;11.00;99.90
28773;DHT22;15925;51.222;5.678;2022-11-13T17:24:41;11.00;99.90
28773;DHT22;15925;51.222;5.678;2022-11-13T17:27:25;11.00;99.90
28773;DHT22;15925;51.222;5.678;2022-11-13T17:30:11;10.90;99.90
28773;DHT22;15925;51.222;5.678;2022-11-13T17:32:56;10.90;99.90
28773;DHT22;15925;51.222;5.678;2022-11-13T17:35:40;10.80;99.90
28773;DHT22;15925;51.222;5.678;2022-11-13T17:38:25;10.80;99.90
28773;DHT22;15925;51.222;5.678;2022-11-13T17:41:11;10.70;99.90
28773;DHT22;15925;51.222;5.678;2022-11-13T17:43:57;10.70;99.90
28773;DHT22;15925;51.222;5.678;2022-11-13T17:46:41;10.60;99.90
28773;DHT22;15925;51.222;5.678;2022-11-13T17:49:26;10.60;99.90
28773;DHT22;15925;51.222;5.678;2022-11-13T17:52:10;10.60;99.90
28773;DHT22;15925;51.222;5.678;2022-11-13T17:54:54;10.60;99.90
28773;DHT22;15925;51.222;5.678;2022-11-13T17:57:39;10.50;99.90
28773;DHT22;15925;51.222;5.678;2022-11-13T18:00:23;10.40;99.90
28773;DHT22;15925;51.222;5.678;2022-11-13T18:03:07;10.40;99.90
28773;DHT22;15925;51.222;5.678;2022-11-13T18:05:52;10.40;99.90
28773;DHT22;15925;51.222;5.678;2022-11-13T18:08:37;10.40;99.90
28773;DHT22;15925;51.222;5.678;2022-11-13T18:11:28;10.30;99.90
28773;DHT22;15925;51.222;5.678;2022-11-13T18:14:13;10.30;99.90
28773;DHT22;15925;51.222;5.678;2022-11-13T18:16:58;10.20;99.90
28773;DHT22;15925;51.222;5.678;2022-11-13T18:19:42;10.20;99.90
28773;DHT22;15925;51.222;5.678;2022-11-13T18:22:28;10.10;99.90
28773;DHT22;15925;51.222;5.678;2022-11-13T18:25:13;10.00;99.90
28773;DHT22;15925;51.222;5.678;2022-11-13T18:27:58;10.00;99.90
28773;DHT22;15925;51.222;5.678;2022-11-13T18:30:42;9.90;99.90
28773;DHT22;15925;51.222;5.678;2022-11-13T18:33:28;9.90;99.90
28773;DHT22;15925;51.222;5.678;2022-11-13T18:36:12;9.70;99.90
28773;DHT22;15925;51.222;5.678;2022-11-13T18:38:56;9.70;99.90
28773;DHT22;15925;51.222;5.678;2022-11-13T18:41:41;9.60;99.90
28773;DHT22;15925;51.222;5.678;2022-11-13T18:44:25;9.60;99.90
28773;DHT22;15925;51.222;5.678;2022-11-13T18:47:09;9.60;99.90
28773;DHT22;15925;51.222;5.678;2022-11-13T18:49:53;9.60;99.90
28773;DHT22;15925;51.222;5.678;2022-11-13T18:52:38;9.60;99.90
28773;DHT22;15925;51.222;5.678;2022-11-13T18:55:22;9.50;99.90
28773;DHT22;15925;51.222;5.678;2022-11-13T18:58:06;9.50;99.90
28773;DHT22;15925;51.222;5.678;2022-11-13T19:00:51;9.50;99.90
28773;DHT22;15925;51.222;5.678;2022-11-13T19:03:35;9.40;99.90
28773;DHT22;15925;51.222;5.678;2022-11-13T19:06:22;9.40;99.90
28773;DHT22;15925;51.222;5.678;2022-11-13T19:09:10;9.30;99.90
28773;DHT22;15925;51.222;5.678;2022-11-13T19:11:55;9.20;99.90
28773;DHT22;15925;51.222;5.678;2022-11-13T19:14:39;9.20;99.90
28773;DHT22;15925;51.222;5.678;2022-11-13T19:17:23;9.20;99.90